nws-alerts: Checking more than four warning/county codes can delay the loading of your pages. You should use a cron job to get the data.

Nearby METAR Weather Reports

 

KETB - West Bend, WI
Distance from station: E 4mi, 6km
Updated: 12/01/2020 2:35am
Overcast
Overcast
 Wind from N
Wind: N 10 mph , 17 km/h
Temperature: 25°F , -4°C
Wind Chill: 15°F , -9°C
Dew Point: 18°F , -8°C
Humidity: 74%
Barometer: 30.00 inHg , 1015.9 hPa
Clouds: Overcast
Visibility: 10 miles , 16 km
Cloud details: Overcast 2300 ft
2020/12/01 08:35 KETB 010835Z AUTO 35009KT 10SM OVC023 M04/M08 A3000 RMK AO2
KFLD - Fond Du Lac, WI
Distance from station: W 34mi, 54km
Updated: 12/01/2020 1:53am
Overcast
Overcast
 Wind from NNW
Wind: NNW 12 mph , 19 km/h
Temperature: 27°F , -3°C
Wind Chill: 16°F , -9°C
Dew Point: 16°F , -9°C
Humidity: 64%
Barometer: 30.03 inHg , 1016.9 hPa
Clouds: Overcast
Visibility: 10 miles , 16 km
Cloud details: Overcast 2300 ft
2020/12/01 07:53 KFLD 010753Z AUTO 34010KT 10SM OVC023 M03/M09 A3003 RMK AO2 SLP178 T10331089
 
KSBM - Sheboygan, WI
Distance from station: NE 36mi, 57km
Updated: 12/01/2020 1:53am
Overcast
Overcast
 Wind from N
Wind: N 17 mph , 28 km/h, Gust: 26 mph , 43 km/h
Temperature: 30°F , -1°C
Wind Chill: 18°F , -8°C
Dew Point: 18°F , -8°C
Humidity: 59%
Barometer: 30.00 inHg , 1015.9 hPa
Clouds: Overcast
Visibility: 10 miles , 16 km
Cloud details: Overcast 2500 ft
2020/12/01 07:53 KSBM 010753Z AUTO 35015G23KT 10SM OVC025 M01/M08 A3000 RMK AO2 SLP169 T10111083
KMKE - Milwaukee, WI
Distance from station: S 44mi, 70km
Updated: 12/01/2020 1:52am
Overcast
Overcast
 Wind from NNW
Wind: NNW 9 mph , 15 km/h
Temperature: 28°F , -2°C
Wind Chill: 19°F , -7°C
Dew Point: 16°F , -9°C
Humidity: 59%
Barometer: 30.00 inHg , 1015.9 hPa
Clouds: Overcast
Visibility: 10 miles , 16 km
Cloud details: Overcast 2800 ft
2020/12/01 07:52 KMKE 010752Z 33008KT 10SM OVC028 M02/M09 A3000 RMK AO2 SLP168 T10221094
 
KOSH - Oshkosh, WI
Distance from station: WNW 52mi, 83km
Updated: 12/01/2020 1:53am
Overcast
Overcast
 Wind from N
Wind: N 10 mph , 17 km/h
Temperature: 25°F , -4°C
Wind Chill: 15°F , -9°C
Dew Point: 16°F , -9°C
Humidity: 69%
Barometer: 30.02 inHg , 1016.6 hPa
Clouds: Overcast
Visibility: 10 miles , 16 km
Cloud details: Overcast 2500 ft
2020/12/01 07:53 KOSH 010753Z AUTO 35009KT 10SM OVC025 M04/M09 A3002 RMK AO2 SLP185 T10441094
KENW - Kenosha, WI
Distance from station: SSE 69mi, 111km
Updated: 12/01/2020 1:53am
Overcast
Overcast
 Wind from NNW
Wind: NNW 10 mph , 17 km/h
Temperature: 28°F , -2°C
Wind Chill: 19°F , -7°C
Dew Point: 16°F , -9°C
Humidity: 59%
Barometer: 30.00 inHg , 1015.9 hPa
Clouds: Overcast
Visibility: 10 miles , 16 km
Cloud details: Overcast 2700 ft
2020/12/01 07:53 KENW 010753Z AUTO 33009KT 10SM OVC027 M02/M09 A3000 RMK AO2 SLP170 T10221089
 
KMSN - Madison, WI
Distance from station: SW 69mi, 111km
Updated: 12/01/2020 1:53am
Clear
Clear
 Wind from NNW
Wind: NNW 6 mph , 9 km/h
Temperature: 19°F , -7°C
Wind Chill: 11°F , -12°C
Dew Point: 14°F , -10°C
Humidity: 79%
Barometer: 30.04 inHg , 1017.3 hPa
Clouds: Clear
Visibility: 10 miles , 16 km
2020/12/01 07:53 KMSN 010753Z AUTO 33005KT 10SM CLR M07/M10 A3004 RMK AO2 SLP187 T10721100
KSAW - Marquette, MI
Distance from station: N 262mi, 421km
Updated: 12/01/2020 2:18am
Overcast
Overcast
 Wind from N
Wind: N 13 mph , 20 km/h, Gust: 21 mph , 33 km/h
Temperature: 25°F , -4°C
Wind Chill: 13°F , -11°C
Dew Point: 19°F , -7°C
Humidity: 80%
Barometer: 30.00 inHg , 1015.9 hPa
Clouds: Overcast
Visibility: 10 miles , 16 km
Cloud details: Overcast 1700 ft
2020/12/01 08:18 KSAW 010818Z AUTO 36011G18KT 10SM OVC017 M04/M07 A3000 RMK AO2 T10361068
 
KIMT - Iron Mountain, MI
Distance from station: NNW 201mi, 323km
Updated: 12/01/2020 1:54am
Overcast
Overcast
 Wind from NNW
Wind: NNW 17 mph , 28 km/h, Gust: 25 mph , 41 km/h
Temperature: 25°F , -4°C
Wind Chill: 12°F , -11°C
Dew Point: 16°F , -9°C
Humidity: 69%
Barometer: 30.01 inHg , 1016.3 hPa
Clouds: Overcast
Visibility: 10 miles , 16 km
Cloud details: Overcast 1900 ft
2020/12/01 07:54 KIMT 010754Z AUTO 34015G22KT 10SM OVC019 M04/M09 A3001 RMK AO2 SLP182 T10441089
KGRB - Green Bay, WI
Distance from station: NNW 87mi, 140km
Updated: 12/01/2020 1:53am
Overcast
Overcast
 Wind from N
Wind: N 9 mph , 15 km/h
Temperature: 27°F , -3°C
Wind Chill: 18°F , -8°C
Dew Point: 16°F , -9°C
Humidity: 64%
Barometer: 30.03 inHg , 1016.9 hPa
Clouds: Overcast
Visibility: 10 miles , 16 km
Cloud details: Overcast 2500 ft
2020/12/01 07:53 KGRB 010753Z AUTO 35008KT 10SM OVC025 M03/M09 A3003 RMK AO2 SLP178 T10331089
 
KAUW - Wausau, WI
Distance from station: NW 155mi, 249km
Updated: 12/01/2020 1:54am
Clear
Clear
 Wind from WNW
Wind: WNW 9 mph , 15 km/h
Temperature: 16°F , -9°C
Wind Chill: 5°F , -15°C
Dew Point: 12°F , -11°C
Humidity: 86%
Barometer: 30.04 inHg , 1017.3 hPa
Clouds: Clear
Visibility: 10 miles , 16 km
2020/12/01 07:54 KAUW 010754Z AUTO 30008KT 10SM CLR M09/M11 A3004 RMK AO2 SLP196 T10891106
KORD - Chicago O'Hare, IL
Distance from station: S 113mi, 181km
Updated: 12/01/2020 1:51am
Overcast
Overcast
 Wind from NW
Wind: NW 12 mph , 19 km/h
Temperature: 28°F , -2°C
Wind Chill: 18°F , -8°C
Dew Point: 16°F , -9°C
Humidity: 59%
Barometer: 30.00 inHg , 1015.9 hPa
Clouds: Overcast
Visibility: 10 miles , 16 km
Cloud details: Overcast 3000 ft
2020/12/01 07:51 KORD 010751Z 32010KT 10SM OVC030 M02/M09 A3000 RMK AO2 SLP165 T10171089
 
KVOK - WIANG Volk Field, Camp Douglas, WI
Distance from station: WNW 120mi, 193km
Updated: 12/01/2020 1:56am
Clear
Clear
 Wind from WNW
Wind: WNW 5 mph , 7 km/h
Temperature: 10°F , -12°C
Wind Chill: 1°F , -17°C
Dew Point: 10°F , -12°C
Humidity: 100%
Barometer: 30.07 inHg , 1018.3 hPa
Clouds: Clear
Visibility: 10 miles , 16 km
2020/12/01 07:56 KVOK 010756Z AUTO 30004KT 10SM CLR M12/M12 A3007 RMK AO2 SLP201 T11161118
KLNR - Lone Rock, WI
Distance from station: W 114mi, 183km
Updated: 12/01/2020 1:56am
Clear
Clear
 Wind from W
Wind: W 3 mph , 6 km/h
Temperature: 18°F , -8°C
Dew Point: 14°F , -10°C
Humidity: 86%
Barometer: 30.09 inHg , 1019 hPa
Clouds: Clear
Visibility: 10 miles , 16 km
2020/12/01 07:56 KLNR 010756Z AUTO 27003KT 10SM CLR M08/M10 A3009 RMK AO2 SLP193 T10781100